createdAt,value
2022-10-01T00:20:03.873Z,19.2
2022-10-01T00:55:02.791Z,19.2
2022-10-01T01:10:03.579Z,19.2
2022-10-01T01:25:06.355Z,19.2
2022-10-01T01:40:05.815Z,19.2
2022-10-01T01:55:03.408Z,19.2
2022-10-01T02:10:02.708Z,19.2
2022-10-01T02:30:03.823Z,19.1
2022-10-01T02:45:05.575Z,19.1
2022-10-01T03:00:06.668Z,19.1
2022-10-01T03:15:04.668Z,19.1
2022-10-01T03:35:02.455Z,19
2022-10-01T03:50:06.874Z,19
2022-10-01T04:10:06.490Z,19
2022-10-01T04:40:06.598Z,19
2022-10-01T04:55:04.632Z,18.9
2022-10-01T05:10:02.852Z,18.9
2022-10-01T05:25:02.703Z,18.9
2022-10-01T06:00:04.842Z,18.9
2022-10-01T06:35:05.531Z,19
2022-10-01T07:05:05.569Z,19.1
2022-10-01T07:25:06.834Z,19.1
2022-10-01T07:40:04.796Z,19.1
2022-10-01T08:10:02.444Z,19.1
2022-10-01T08:25:06.852Z,19.1
2022-10-01T09:00:03.454Z,19.1
2022-10-01T09:30:03.840Z,19.1
2022-10-01T10:00:05.441Z,19.1
2022-10-01T10:15:03.659Z,19.1
2022-10-01T10:30:04.891Z,19.1
2022-10-01T11:00:04.680Z,19.1
2022-10-01T11:15:06.343Z,19
2022-10-01T11:30:06.734Z,19
2022-10-01T11:45:02.729Z,18.9
2022-10-01T12:00:05.581Z,18.8
2022-10-01T12:15:05.669Z,18.7
2022-10-01T12:30:03.835Z,18.7
2022-10-01T12:45:02.742Z,18.6
2022-10-01T13:00:02.549Z,18.6
2022-10-01T13:15:05.850Z,18.5
2022-10-01T13:35:02.589Z,18.5
2022-10-01T13:50:02.536Z,18.4
2022-10-01T14:05:04.442Z,18.4
2022-10-01T14:20:05.669Z,18.4
2022-10-01T14:50:02.684Z,18.5
2022-10-01T15:20:06.395Z,18.5
2022-10-01T15:35:06.367Z,18.5
2022-10-01T15:50:06.922Z,18.4
2022-10-01T16:10:05.459Z,18.4
2022-10-01T16:25:05.572Z,18.3
2022-10-01T16:40:02.505Z,18.3
2022-10-01T16:55:06.503Z,18.2
2022-10-01T17:25:02.344Z,18.2
2022-10-01T17:40:03.735Z,18.1
2022-10-01T17:55:02.549Z,18.1
2022-10-01T18:10:05.401Z,18
2022-10-01T18:25:04.452Z,17.9
2022-10-01T18:40:04.684Z,17.9
2022-10-01T18:55:05.856Z,17.9
2022-10-01T19:30:06.505Z,18
2022-10-01T20:00:05.469Z,18.1
2022-10-01T20:30:03.544Z,18.2
2022-10-01T20:45:06.381Z,18.3
2022-10-01T21:00:04.824Z,18.3
2022-10-01T21:30:05.590Z,18.4
2022-10-01T21:45:06.682Z,18.4
2022-10-01T22:00:06.506Z,18.4
2022-10-01T22:30:02.607Z,18.4
2022-10-01T23:00:03.529Z,18.4
2022-10-01T23:30:04.423Z,18.5
2022-10-01T23:45:06.678Z,18.5
